createdAt,value
2022-08-30T00:04:02.891Z,79.68
2022-08-30T00:09:04.725Z,79.79
2022-08-30T00:14:07.132Z,80.17
2022-08-30T00:19:08.744Z,80.23
2022-08-30T00:24:10.331Z,80.57
2022-08-30T00:29:11.960Z,80.63
2022-08-30T00:34:16.856Z,80.71
2022-08-30T00:39:18.454Z,80.67
2022-08-30T00:44:20.086Z,81.02
2022-08-30T00:49:22.007Z,81.25
2022-08-30T00:54:26.300Z,81.62
2022-08-30T00:59:29.082Z,81.95
2022-08-30T01:04:33.573Z,82.20
2022-08-30T01:09:36.685Z,82.34
2022-08-30T01:14:38.567Z,82.76
2022-08-30T01:20:00.839Z,83.20
2022-08-30T01:25:05.052Z,83.18
2022-08-30T01:30:10.326Z,83.02
2022-08-30T01:35:15.757Z,83.33
2022-08-30T01:40:18.811Z,83.20
2022-08-30T01:45:20.601Z,83.22
2022-08-30T01:50:22.288Z,83.98
2022-08-30T01:55:24.118Z,85.06
2022-08-30T02:00:25.677Z,85.53
2022-08-30T02:05:27.549Z,85.58
2022-08-30T02:10:29.714Z,85.28
2022-08-30T02:15:31.422Z,85.45
2022-08-30T02:20:43.161Z,85.48
2022-08-30T02:25:45.323Z,85.11
2022-08-30T02:30:48.201Z,84.90
2022-08-30T02:35:49.900Z,84.50
2022-08-30T02:40:51.794Z,83.86
2022-08-30T02:45:53.869Z,83.62
2022-08-30T02:50:55.525Z,83.40
2022-08-30T02:55:57.151Z,83.27
2022-08-30T03:00:59.754Z,82.93
2022-08-30T03:06:03.367Z,82.70
2022-08-30T03:11:05.547Z,82.52
2022-08-30T03:16:07.211Z,82.30
2022-08-30T03:21:16.435Z,82.33
2022-08-30T03:26:18.228Z,81.98
2022-08-30T03:31:20.160Z,81.72
2022-08-30T03:36:21.808Z,81.92
2022-08-30T03:41:24.324Z,81.69
2022-08-30T03:46:26.846Z,81.45
2022-08-30T03:51:30.412Z,80.51
2022-08-30T03:56:31.984Z,81.01
2022-08-30T04:01:33.622Z,81.42
2022-08-30T04:06:35.289Z,81.01
2022-08-30T04:11:36.909Z,81.03
2022-08-30T04:16:38.603Z,81.24
2022-08-30T04:21:43.020Z,81.60
2022-08-30T04:26:44.868Z,81.41
2022-08-30T04:31:46.513Z,81.48
2022-08-30T04:36:49.096Z,80.82
2022-08-30T04:41:52.750Z,80.66
2022-08-30T04:46:54.519Z,80.55
2022-08-30T04:51:56.103Z,80.47
2022-08-30T04:56:57.719Z,80.19
2022-08-30T05:01:59.982Z,80.20
2022-08-30T05:07:01.674Z,80.50
2022-08-30T05:12:03.560Z,80.73
2022-08-30T05:17:05.510Z,80.69
2022-08-30T05:22:07.857Z,80.75
2022-08-30T05:27:09.452Z,80.72
2022-08-30T05:32:11.100Z,80.18
2022-08-30T05:37:12.691Z,80.58
2022-08-30T05:42:14.265Z,80.71
2022-08-30T05:47:19.576Z,80.59
2022-08-30T05:52:26.445Z,80.16
2022-08-30T05:57:28.077Z,80.17
2022-08-30T06:02:29.657Z,79.55
2022-08-30T06:07:31.528Z,79.62
2022-08-30T06:12:33.624Z,80.07
2022-08-30T06:17:35.547Z,79.97
2022-08-30T06:22:41.789Z,79.91
2022-08-30T06:27:43.702Z,79.81
2022-08-30T06:32:45.306Z,79.78
2022-08-30T06:37:46.871Z,79.66
2022-08-30T06:42:48.815Z,79.71
2022-08-30T06:47:50.452Z,79.70
2022-08-30T06:52:52.224Z,80.03
2022-08-30T06:57:53.811Z,79.81
2022-08-30T07:02:55.605Z,80.00
2022-08-30T07:07:57.272Z,80.35
2022-08-30T07:12:59.016Z,79.86
2022-08-30T07:18:18.775Z,79.08
2022-08-30T07:23:20.524Z,79.05
2022-08-30T07:28:22.233Z,78.50
2022-08-30T07:33:23.873Z,78.45
2022-08-30T07:38:37.797Z,78.22
2022-08-30T07:43:39.365Z,76.68
2022-08-30T07:48:41.529Z,76.18
2022-08-30T07:53:46.537Z,77.06
2022-08-30T07:58:49.019Z,76.81
2022-08-30T08:03:51.048Z,77.10
2022-08-30T08:08:53.804Z,77.23
2022-08-30T08:13:56.073Z,76.88
2022-08-30T08:18:57.895Z,76.25
2022-08-30T08:23:59.475Z,76.28
2022-08-30T08:29:01.087Z,75.11
2022-08-30T08:34:06.077Z,72.62
2022-08-30T08:39:09.307Z,72.49
2022-08-30T08:44:15.673Z,73.26
2022-08-30T08:49:17.521Z,73.65
2022-08-30T08:54:25.791Z,71.57
2022-08-30T08:59:27.461Z,68.67
2022-08-30T09:04:37.831Z,68.24
2022-08-30T09:14:47.204Z,69.73
2022-08-30T09:19:51.823Z,69.25
2022-08-30T09:25:24.030Z,69.21
2022-08-30T09:30:28.679Z,67.39
2022-08-30T09:35:41.495Z,67.97
2022-08-30T09:40:45.987Z,68.67
2022-08-30T09:46:08.860Z,67.14
2022-08-30T09:51:10.476Z,63.45
2022-08-30T09:56:22.215Z,62.77
2022-08-30T10:01:38.292Z,63.44
2022-08-30T10:07:02.902Z,62.33
2022-08-30T10:12:23.000Z,64.00
2022-08-30T10:17:44.711Z,63.54
2022-08-30T10:22:52.441Z,61.52
2022-08-30T10:28:12.790Z,60.91
2022-08-30T10:33:25.494Z,59.56
2022-08-30T10:38:33.465Z,60.06
2022-08-30T10:43:40.016Z,59.22
2022-08-30T10:48:47.551Z,58.90
2022-08-30T10:54:09.106Z,60.92
2022-08-30T10:59:12.144Z,59.67
2022-08-30T11:04:45.416Z,60.45
2022-08-30T11:10:11.017Z,60.36
2022-08-30T11:15:37.316Z,59.36
2022-08-30T11:20:51.143Z,58.59
2022-08-30T11:26:04.224Z,59.78
2022-08-30T11:31:21.046Z,57.63
2022-08-30T11:36:46.180Z,58.15
2022-08-30T11:42:12.780Z,58.41
2022-08-30T11:47:39.601Z,58.85
2022-08-30T11:53:15.222Z,58.42
2022-08-30T11:58:23.901Z,57.79
2022-08-30T12:03:32.923Z,56.99
2022-08-30T12:08:34.547Z,56.46
2022-08-30T12:13:37.893Z,57.10
2022-08-30T12:18:39.503Z,57.75
2022-08-30T12:23:48.671Z,56.85
2022-08-30T12:28:52.732Z,56.93
2022-08-30T12:34:00.783Z,56.13
2022-08-30T12:39:14.315Z,54.87
2022-08-30T12:44:22.540Z,54.09
2022-08-30T12:49:25.605Z,50.43
2022-08-30T12:54:30.780Z,48.40
2022-08-30T12:59:54.024Z,50.26
2022-08-30T13:05:28.327Z,50.04
2022-08-30T13:10:31.285Z,50.06
2022-08-30T13:15:41.231Z,50.14
2022-08-30T13:20:43.324Z,51.72
2022-08-30T13:25:45.372Z,52.07
2022-08-30T13:30:46.971Z,52.04
2022-08-30T13:35:48.583Z,51.55
2022-08-30T13:40:50.268Z,51.60
2022-08-30T13:45:52.114Z,50.01
2022-08-30T13:50:53.862Z,50.28
2022-08-30T13:55:55.506Z,50.39
2022-08-30T14:00:57.893Z,48.56
2022-08-30T14:06:21.799Z,50.61
2022-08-30T14:11:22.885Z,47.70
2022-08-30T14:16:28.251Z,47.72
2022-08-30T14:21:30.205Z,43.82
2022-08-30T14:26:45.774Z,44.13
2022-08-30T14:31:51.461Z,45.24
2022-08-30T14:36:53.212Z,44.66
2022-08-30T14:41:55.848Z,44.09
2022-08-30T14:46:57.541Z,45.33
2022-08-30T14:51:59.262Z,46.10
2022-08-30T14:57:00.967Z,46.53
2022-08-30T15:02:02.585Z,45.74
2022-08-30T15:07:04.515Z,46.78
2022-08-30T15:12:06.318Z,47.34
2022-08-30T15:17:09.323Z,46.46
2022-08-30T15:22:11.140Z,46.03
2022-08-30T15:27:12.771Z,45.81
2022-08-30T15:32:14.364Z,46.43
2022-08-30T15:37:22.355Z,48.40
2022-08-30T15:42:23.969Z,49.20
2022-08-30T15:47:25.566Z,50.05
2022-08-30T15:52:27.796Z,51.71
2022-08-30T15:57:29.446Z,52.29
2022-08-30T16:02:31.155Z,52.63
2022-08-30T16:07:36.277Z,53.22
2022-08-30T16:12:40.450Z,53.29
2022-08-30T16:17:42.038Z,54.61
2022-08-30T16:22:46.044Z,54.73
2022-08-30T16:27:48.924Z,55.04
2022-08-30T16:32:50.538Z,54.68
2022-08-30T16:37:52.241Z,55.35
2022-08-30T16:42:53.812Z,56.19
2022-08-30T16:47:55.479Z,55.97
2022-08-30T16:52:57.167Z,56.56
2022-08-30T16:57:58.744Z,57.12
2022-08-30T17:03:00.575Z,57.70
2022-08-30T17:08:04.148Z,57.67
2022-08-30T17:13:05.771Z,58.07
2022-08-30T17:18:07.381Z,58.57
2022-08-30T17:23:10.349Z,58.72
2022-08-30T17:28:11.934Z,59.22
2022-08-30T17:33:15.119Z,59.53
2022-08-30T17:38:19.709Z,59.66
2022-08-30T17:43:21.464Z,60.61
2022-08-30T17:48:23.100Z,60.37
2022-08-30T17:53:24.797Z,60.90
2022-08-30T17:58:26.554Z,61.57
2022-08-30T18:03:28.853Z,62.21
2022-08-30T18:08:30.967Z,62.13
2022-08-30T18:13:33.325Z,62.60
2022-08-30T18:18:36.488Z,63.59
2022-08-30T18:23:38.126Z,63.54
2022-08-30T18:28:41.544Z,63.71
2022-08-30T18:33:43.647Z,64.91
2022-08-30T18:38:45.525Z,65.25
2022-08-30T18:43:47.213Z,64.94
2022-08-30T18:48:49.248Z,65.02
2022-08-30T18:53:50.867Z,65.65
2022-08-30T18:58:52.476Z,65.87
2022-08-30T19:03:54.108Z,66.08
2022-08-30T19:08:56.146Z,66.99
2022-08-30T19:13:57.757Z,66.37
2022-08-30T19:18:59.623Z,67.61
2022-08-30T19:24:01.801Z,67.36
2022-08-30T19:29:05.194Z,67.75
2022-08-30T19:34:06.885Z,68.15
2022-08-30T19:39:09.984Z,68.23
2022-08-30T19:44:11.834Z,68.64
2022-08-30T19:49:13.444Z,68.88
2022-08-30T19:54:15.331Z,69.45
2022-08-30T19:59:19.570Z,69.91
2022-08-30T20:04:22.147Z,70.36
2022-08-30T20:09:25.175Z,70.47
2022-08-30T20:14:26.887Z,70.77
2022-08-30T20:19:29.299Z,71.22
2022-08-30T20:24:31.171Z,71.48
2022-08-30T20:29:34.487Z,72.08
2022-08-30T20:34:37.209Z,72.08
2022-08-30T20:39:39.204Z,72.71
2022-08-30T20:44:40.796Z,72.68
2022-08-30T20:49:43.293Z,72.71
2022-08-30T20:54:45.189Z,72.50
2022-08-30T20:59:46.768Z,72.59
2022-08-30T21:04:48.493Z,72.84
2022-08-30T21:09:50.431Z,73.44
2022-08-30T21:14:52.255Z,73.06
2022-08-30T21:19:55.345Z,73.29
2022-08-30T21:24:56.962Z,73.30
2022-08-30T21:29:58.654Z,73.26
2022-08-30T21:35:18.482Z,73.38
2022-08-30T21:40:20.871Z,73.73
2022-08-30T21:45:22.977Z,73.65
2022-08-30T21:50:24.559Z,74.22
2022-08-30T21:55:26.433Z,74.11
2022-08-30T22:00:28.181Z,74.07
2022-08-30T22:05:29.846Z,74.10
2022-08-30T22:10:33.374Z,73.95
2022-08-30T22:15:35.121Z,74.20
2022-08-30T22:20:36.712Z,74.62
2022-08-30T22:25:38.282Z,74.74
2022-08-30T22:30:39.935Z,74.71
2022-08-30T22:35:41.592Z,74.72
2022-08-30T22:40:54.264Z,74.72
2022-08-30T22:45:57.934Z,74.75
2022-08-30T22:50:59.617Z,74.63
2022-08-30T22:56:07.285Z,73.99
2022-08-30T23:01:17.979Z,73.83
2022-08-30T23:06:19.976Z,73.61
2022-08-30T23:11:22.255Z,73.60
2022-08-30T23:16:24.914Z,73.64
2022-08-30T23:21:29.825Z,73.21
2022-08-30T23:26:50.109Z,72.69
2022-08-30T23:32:10.440Z,72.86
2022-08-30T23:37:30.710Z,72.84
2022-08-30T23:42:50.527Z,72.84
2022-08-30T23:48:10.412Z,73.08
2022-08-30T23:53:30.570Z,73.18
2022-08-30T23:58:50.514Z,73.27
